Time;durP1;ratioP1;P1;durP2;ratioP2;P2;SDS_P1;SDS_P2;PMS_P1;PMS_P2;Temp;Humidity;BMP_temperature;BMP_pressure;BME280_temperature;BME280_humidity;BME280_pressure;Samples;Min_cycle;Max_cycle;Signal;HPM_P1;HPM_P2
2023/03/09 00:04:42;;;;;;;;;;;;;;;8.08;100.00;93605.78;10393246;28;2095;-69
2023/03/09 00:09:47;;;;;;;;;;;;;;;8.29;100.00;93605.22;10400370;28;2619;-71
2023/03/09 00:14:50;;;;;;;;;;;;;;;8.44;100.00;93609.34;10431641;28;1972;-71
2023/03/09 00:20:00;;;;;;;;;;;;;;;8.64;100.00;93608.75;10396677;28;2218;-69
2023/03/09 00:25:03;;;;;;;;;;;;;;;8.71;100.00;93605.59;10393562;28;1960;-69
2023/03/09 00:30:06;;;;;;;;;;;;;;;8.73;100.00;93604.19;10398311;28;2071;-72
2023/03/09 00:35:09;;;;;;;;;;;;;;;8.75;100.00;93593.94;10397745;28;2415;-72
2023/03/09 00:40:14;;;;;;;;;;;;;;;8.70;100.00;93582.59;10398635;28;2028;-76
2023/03/09 00:45:17;;;;;;;;;;;;;;;8.68;100.00;93572.22;10389980;28;2041;-70
2023/03/09 00:50:20;;;;;;;;;;;;;;;8.84;100.00;93591.25;10391129;28;2209;-74
2023/03/09 00:55:24;;;;;;;;;;;;;;;8.94;100.00;93546.19;10399107;28;1998;-70
2023/03/09 01:00:27;;;;;;;;;;;;;;;8.82;100.00;93566.69;10394305;28;2040;-72
2023/03/09 01:05:30;;;;;;;;;;;;;;;8.86;100.00;93512.16;10388036;28;2171;-71
2023/03/09 01:10:33;;;;;;;;;;;;;;;9.01;100.00;93551.06;10388727;28;2038;-72
2023/03/09 01:15:36;;;;;;;;;;;;;;;8.83;100.00;93538.78;10403502;28;2099;-69
2023/03/09 01:20:39;;;;;;;;;;;;;;;8.68;100.00;93531.25;10397599;28;2062;-69
2023/03/09 01:25:42;;;;;;;;;;;;;;;8.58;100.00;93529.66;10406275;28;2103;-69
2023/03/09 01:30:45;;;;;;;;;;;;;;;8.69;100.00;93517.53;10404227;28;1997;-69
2023/03/09 01:35:48;;;;;;;;;;;;;;;8.79;100.00;93537.88;10395148;28;2032;-69
2023/03/09 01:40:51;;;;;;;;;;;;;;;9.06;100.00;93553.59;10402118;28;2611;-70
2023/03/09 01:45:54;;;;;;;;;;;;;;;9.10;100.00;93549.19;10405096;28;2216;-69
2023/03/09 01:50:57;;;;;;;;;;;;;;;9.37;100.00;93539.19;10409916;28;1717;-69
2023/03/09 01:56:00;;;;;;;;;;;;;;;9.45;100.00;93522.28;10411374;28;2026;-68
2023/03/09 02:01:02;;;;;;;;;;;;;;;9.38;100.00;93524.66;10409417;28;2005;-69
2023/03/09 02:06:06;;;;;;;;;;;;;;;9.38;100.00;93498.63;10397720;28;2024;-69
2023/03/09 02:11:18;;;;;;;;;;;;;;;9.58;100.00;93499.81;10386929;28;2024;-69
2023/03/09 02:16:20;;;;;;;;;;;;;;;9.66;100.00;93490.16;10401749;28;2251;-67
2023/03/09 02:21:24;;;;;;;;;;;;;;;9.68;100.00;93499.47;10397581;28;2112;-69
2023/03/09 02:26:26;;;;;;;;;;;;;;;9.63;100.00;93513.06;10397529;28;2060;-69
2023/03/09 02:31:29;;;;;;;;;;;;;;;9.57;100.00;93551.09;10395385;28;2079;-68
2023/03/09 02:36:32;;;;;;;;;;;;;;;9.62;100.00;93561.66;10398359;28;2068;-68
2023/03/09 02:41:34;;;;;;;;;;;;;;;9.31;100.00;93623.56;10397183;28;1986;-68
2023/03/09 02:46:37;;;;;;;;;;;;;;;8.68;100.00;93646.41;10393787;28;2059;-69
2023/03/09 02:51:49;;;;;;;;;;;;;;;7.35;100.00;93667.88;10396081;28;2048;-69
2023/03/09 02:56:51;;;;;;;;;;;;;;;6.86;100.00;93699.69;10395674;28;2147;-70
2023/03/09 03:01:54;;;;;;;;;;;;;;;6.82;100.00;93688.03;10397817;28;2166;-70
2023/03/09 03:06:57;;;;;;;;;;;;;;;7.09;100.00;93665.78;10393296;28;2072;-72
2023/03/09 03:12:00;;;;;;;;;;;;;;;6.95;100.00;93668.53;10395343;28;2076;-70
2023/03/09 03:17:03;;;;;;;;;;;;;;;6.86;100.00;93688.22;10402059;28;2062;-70
2023/03/09 03:22:05;;;;;;;;;;;;;;;6.83;100.00;93649.56;10397551;28;2060;-69
2023/03/09 03:27:07;;;;;;;;;;;;;;;6.90;100.00;93663.28;10394425;28;2044;-72
2023/03/09 03:32:10;;;;;;;;;;;;;;;7.00;100.00;93676.41;10399604;28;1987;-69
2023/03/09 03:37:13;;;;;;;;;;;;;;;7.00;100.00;93656.94;10396792;28;2066;-71
2023/03/09 03:42:16;;;;;;;;;;;;;;;7.15;100.00;93656.56;10398919;28;2165;-70
2023/03/09 03:47:18;;;;;;;;;;;;;;;7.17;100.00;93657.03;10401642;28;2064;-71
2023/03/09 03:52:21;;;;;;;;;;;;;;;7.23;100.00;93634.47;10402784;28;2042;-70
2023/03/09 03:57:23;;;;;;;;;;;;;;;7.33;100.00;93646.78;10402859;28;2077;-70
2023/03/09 04:02:26;;;;;;;;;;;;;;;7.43;100.00;93662.56;10404200;28;2195;-73
2023/03/09 04:07:28;;;;;;;;;;;;;;;7.41;100.00;93643.38;10402722;28;2116;-70
2023/03/09 04:12:31;;;;;;;;;;;;;;;7.37;100.00;93622.91;10439259;28;1973;-70
2023/03/09 04:17:34;;;;;;;;;;;;;;;7.31;100.00;93619.56;10401437;28;2115;-75
2023/03/09 04:22:36;;;;;;;;;;;;;;;7.40;100.00;93633.00;10398229;28;2066;-76
2023/03/09 04:27:39;;;;;;;;;;;;;;;7.59;100.00;93650.41;10396846;28;2086;-71
2023/03/09 04:32:41;;;;;;;;;;;;;;;7.47;100.00;93647.50;10391055;28;2068;-70
2023/03/09 04:37:44;;;;;;;;;;;;;;;7.43;100.00;93654.53;10395941;28;2052;-70
2023/03/09 04:42:46;;;;;;;;;;;;;;;7.32;100.00;93674.63;10392264;28;2551;-72
2023/03/09 04:47:49;;;;;;;;;;;;;;;7.36;100.00;93680.13;10395725;28;1955;-69
2023/03/09 04:52:51;;;;;;;;;;;;;;;7.37;100.00;93695.84;10402594;28;2023;-70
2023/03/09 04:57:54;;;;;;;;;;;;;;;7.50;100.00;93708.38;10389871;28;2091;-71
2023/03/09 05:02:56;;;;;;;;;;;;;;;7.67;100.00;93675.63;10396224;28;2139;-69
2023/03/09 05:07:59;;;;;;;;;;;;;;;7.71;100.00;93697.19;10397219;28;1957;-69
2023/03/09 05:13:02;;;;;;;;;;;;;;;7.39;100.00;93707.06;10402075;28;2058;-72
2023/03/09 05:18:05;;;;;;;;;;;;;;;7.31;100.00;93707.75;10403526;28;2247;-71
2023/03/09 05:23:08;;;;;;;;;;;;;;;7.30;100.00;93719.53;10396008;28;2090;-70
2023/03/09 05:28:11;;;;;;;;;;;;;;;7.35;100.00;93756.84;10396325;28;2032;-69
2023/03/09 05:33:24;;;;;;;;;;;;;;;7.42;100.00;93749.19;10396167;28;2185;-69
2023/03/09 05:38:27;;;;;;;;;;;;;;;7.39;100.00;93770.41;10397450;28;2112;-70
2023/03/09 05:43:31;;;;;;;;;;;;;;;7.33;100.00;93793.78;10394000;28;2072;-69
2023/03/09 05:48:33;;;;;;;;;;;;;;;7.17;100.00;93812.03;10396128;28;2205;-70
2023/03/09 05:53:37;;;;;;;;;;;;;;;7.04;100.00;93835.00;10397603;28;2021;-69
2023/03/09 05:58:40;;;;;;;;;;;;;;;7.01;100.00;93862.31;10392267;28;2023;-72
2023/03/09 06:03:43;;;;;;;;;;;;;;;7.01;100.00;93866.88;10398674;28;2072;-76
2023/03/09 06:08:45;;;;;;;;;;;;;;;6.99;100.00;93864.47;10392345;28;2066;-69
2023/03/09 06:13:48;;;;;;;;;;;;;;;6.97;100.00;93908.63;10392303;28;2141;-69
2023/03/09 06:18:55;;;;;;;;;;;;;;;6.97;100.00;93893.38;10405374;28;2104;-70
2023/03/09 06:23:57;;;;;;;;;;;;;;;6.97;100.00;93933.44;10386354;28;2024;-69
2023/03/09 06:29:03;;;;;;;;;;;;;;;7.02;100.00;93943.25;10394828;28;2141;-68
2023/03/09 06:34:07;;;;;;;;;;;;;;;7.06;100.00;93952.25;10396772;28;2073;-69
2023/03/09 06:39:10;;;;;;;;;;;;;;;7.02;100.00;93970.75;10402379;28;2064;-71
2023/03/09 06:44:13;;;;;;;;;;;;;;;7.15;100.00;93989.78;10398843;28;1999;-74
2023/03/09 06:49:17;;;;;;;;;;;;;;;7.20;100.00;94017.19;10400011;28;2011;-69
2023/03/09 06:54:20;;;;;;;;;;;;;;;7.25;100.00;94035.81;10394138;28;2033;-68
2023/03/09 06:59:23;;;;;;;;;;;;;;;7.29;100.00;94054.72;10398200;28;2105;-72
2023/03/09 07:04:26;;;;;;;;;;;;;;;7.41;100.00;94063.06;10428031;28;1972;-73
2023/03/09 07:09:30;;;;;;;;;;;;;;;7.61;100.00;94071.78;10388683;28;2052;-70
2023/03/09 07:14:33;;;;;;;;;;;;;;;7.74;100.00;94093.19;10397170;28;2007;-71
2023/03/09 07:19:35;;;;;;;;;;;;;;;7.93;100.00;94097.66;10390314;28;2058;-71
2023/03/09 07:24:38;;;;;;;;;;;;;;;7.93;100.00;94095.78;10398021;28;2342;-71
2023/03/09 07:29:40;;;;;;;;;;;;;;;7.91;100.00;94107.88;10388416;28;2083;-70
2023/03/09 07:34:43;;;;;;;;;;;;;;;7.89;100.00;94105.50;10404037;28;1973;-70
2023/03/09 07:39:46;;;;;;;;;;;;;;;7.95;100.00;94132.94;10398119;28;2177;-72
2023/03/09 07:44:48;;;;;;;;;;;;;;;8.11;100.00;94145.72;10394365;28;2067;-71
2023/03/09 07:49:50;;;;;;;;;;;;;;;8.22;100.00;94132.16;10396069;28;2225;-72
2023/03/09 07:54:53;;;;;;;;;;;;;;;8.29;100.00;94151.28;10396890;28;2103;-72
2023/03/09 07:59:55;;;;;;;;;;;;;;;8.53;100.00;94157.25;10397186;28;2111;-74
2023/03/09 08:04:58;;;;;;;;;;;;;;;8.93;100.00;94170.84;10391041;28;2100;-73
2023/03/09 08:10:00;;;;;;;;;;;;;;;9.33;100.00;94179.06;10388167;28;1999;-75
2023/03/09 08:15:04;;;;;;;;;;;;;;;9.73;100.00;94178.09;10392958;28;2028;-72
2023/03/09 08:20:08;;;;;;;;;;;;;;;9.74;100.00;94185.03;10394233;28;2093;-72
2023/03/09 08:25:11;;;;;;;;;;;;;;;9.82;100.00;94196.13;10399276;28;2033;-71
2023/03/09 08:30:14;;;;;;;;;;;;;;;10.36;100.00;94204.94;10402325;28;2291;-73
2023/03/09 08:35:16;;;;;;;;;;;;;;;10.14;100.00;94217.31;10405404;28;2346;-72
2023/03/09 08:40:20;;;;;;;;;;;;;;;10.17;100.00;94224.72;10402195;28;2354;-71
2023/03/09 08:45:22;;;;;;;;;;;;;;;9.94;100.00;94237.41;10406413;28;2307;-71
2023/03/09 08:50:25;;;;;;;;;;;;;;;9.96;100.00;94235.19;10395172;28;2316;-70
2023/03/09 08:55:29;;;;;;;;;;;;;;;10.48;100.00;94250.81;10404648;28;1880;-70
2023/03/09 09:00:31;;;;;;;;;;;;;;;10.85;100.00;94249.53;10398017;28;2072;-73
2023/03/09 09:05:34;;;;;;;;;;;;;;;10.66;100.00;94240.94;10401712;28;2314;-71
2023/03/09 09:10:37;;;;;;;;;;;;;;;10.61;100.00;94249.13;10396958;28;2286;-69
2023/03/09 09:15:41;;;;;;;;;;;;;;;10.72;100.00;94250.44;10408608;28;2353;-70
2023/03/09 09:20:54;;;;;;;;;;;;;;;11.79;100.00;94245.38;10398296;28;2511;-71
2023/03/09 09:26:02;;;;;;;;;;;;;;;11.44;100.00;94257.22;10402908;28;2013;-70
2023/03/09 09:31:06;;;;;;;;;;;;;;;11.17;100.00;94277.13;10403166;28;2348;-69
2023/03/09 09:36:09;;;;;;;;;;;;;;;11.18;100.00;94267.97;10403859;28;2331;-70
2023/03/09 09:41:11;;;;;;;;;;;;;;;11.34;100.00;94277.97;10396377;28;2308;-69
2023/03/09 09:46:14;;;;;;;;;;;;;;;11.42;100.00;94289.84;10406026;28;2344;-71
2023/03/09 09:51:18;;;;;;;;;;;;;;;11.81;100.00;94294.31;10396548;28;2271;-70
2023/03/09 09:56:20;;;;;;;;;;;;;;;11.92;100.00;94281.34;10395239;28;2334;-69
2023/03/09 10:01:22;;;;;;;;;;;;;;;11.77;100.00;94290.66;10394576;28;1999;-71
2023/03/09 10:06:25;;;;;;;;;;;;;;;11.46;100.00;94285.44;10387560;28;2387;-68
2023/03/09 10:11:28;;;;;;;;;;;;;;;11.47;100.00;94300.47;10393117;28;2227;-69
2023/03/09 10:16:31;;;;;;;;;;;;;;;11.56;100.00;94295.06;10407742;28;2030;-69
2023/03/09 10:21:34;;;;;;;;;;;;;;;11.62;100.00;94300.00;10392432;28;2388;-69
2023/03/09 10:26:36;;;;;;;;;;;;;;;12.04;100.00;94310.31;10401751;28;2388;-68
2023/03/09 10:31:39;;;;;;;;;;;;;;;12.14;100.00;94301.91;10388027;28;2341;-69
2023/03/09 10:36:41;;;;;;;;;;;;;;;12.09;100.00;94304.78;10399979;28;2479;-69
2023/03/09 10:41:44;;;;;;;;;;;;;;;12.38;100.00;94304.88;10389328;28;1994;-69
2023/03/09 10:46:46;;;;;;;;;;;;;;;11.74;100.00;94318.22;10388739;28;2563;-68
2023/03/09 10:51:49;;;;;;;;;;;;;;;11.75;100.00;94335.94;10394882;28;2354;-70
2023/03/09 10:56:53;;;;;;;;;;;;;;;11.61;100.00;94329.91;10397085;28;2352;-68
2023/03/09 11:01:56;;;;;;;;;;;;;;;11.40;100.00;94307.41;10398198;28;2293;-67
2023/03/09 11:06:58;;;;;;;;;;;;;;;11.40;100.00;94280.50;10393745;28;2358;-70
2023/03/09 11:12:02;;;;;;;;;;;;;;;11.47;100.00;94318.50;10393966;28;2079;-69
2023/03/09 11:17:05;;;;;;;;;;;;;;;11.50;100.00;94307.88;10396464;28;2339;-69
2023/03/09 11:22:07;;;;;;;;;;;;;;;11.68;100.00;94318.69;10390730;28;2280;-68
2023/03/09 11:27:10;;;;;;;;;;;;;;;11.37;100.00;94308.81;10397793;28;2217;-75
2023/03/09 11:32:13;;;;;;;;;;;;;;;11.27;100.00;94320.69;10397017;28;2298;-70
2023/03/09 11:37:16;;;;;;;;;;;;;;;11.41;100.00;94323.25;10398754;28;2333;-68
2023/03/09 11:42:18;;;;;;;;;;;;;;;11.38;100.00;94321.94;10401903;28;1981;-69
2023/03/09 11:47:21;;;;;;;;;;;;;;;11.49;100.00;94305.53;10399285;28;2272;-76
2023/03/09 11:52:23;;;;;;;;;;;;;;;11.76;100.00;94293.66;10391375;28;2319;-75
2023/03/09 11:57:26;;;;;;;;;;;;;;;11.96;100.00;94305.72;10391036;28;2289;-68
2023/03/09 12:02:28;;;;;;;;;;;;;;;11.84;100.00;94301.78;10389678;28;2304;-69
2023/03/09 12:07:31;;;;;;;;;;;;;;;12.14;100.00;94310.00;10399610;28;2343;-70
2023/03/09 12:12:35;;;;;;;;;;;;;;;12.31;92.88;94288.41;10393824;28;1907;-69
2023/03/09 12:17:38;;;;;;;;;;;;;;;12.50;92.31;94295.34;10389997;28;2330;-70
2023/03/09 12:22:40;;;;;;;;;;;;;;;12.73;87.46;94277.84;10392407;28;2565;-70
2023/03/09 12:27:43;;;;;;;;;;;;;;;12.53;89.83;94259.66;10400420;28;2657;-71
2023/03/09 12:32:45;;;;;;;;;;;;;;;12.55;87.95;94270.94;10383922;28;2835;-69
2023/03/09 12:37:48;;;;;;;;;;;;;;;12.49;87.44;94261.44;10385823;28;2435;-70
2023/03/09 12:42:50;;;;;;;;;;;;;;;12.59;85.39;94252.97;10397445;28;2480;-69
2023/03/09 12:47:53;;;;;;;;;;;;;;;12.60;85.51;94260.75;10392982;28;2325;-69
2023/03/09 12:52:55;;;;;;;;;;;;;;;12.79;84.46;94263.06;10394050;28;1919;-69
2023/03/09 12:57:58;;;;;;;;;;;;;;;12.95;81.94;94256.00;10387973;28;2391;-69
2023/03/09 13:03:00;;;;;;;;;;;;;;;13.07;77.33;94246.44;10394759;28;2334;-68
2023/03/09 13:08:03;;;;;;;;;;;;;;;12.77;81.13;94257.19;10396298;28;2298;-69
2023/03/09 13:13:06;;;;;;;;;;;;;;;12.59;83.34;94263.75;10404194;28;2237;-69
2023/03/09 13:18:09;;;;;;;;;;;;;;;12.57;82.76;94258.69;10401605;28;2354;-69
2023/03/09 13:23:11;;;;;;;;;;;;;;;12.55;84.45;94266.31;10395925;28;2326;-71
2023/03/09 13:28:14;;;;;;;;;;;;;;;12.62;81.56;94257.75;10398121;28;2316;-69
2023/03/09 13:33:16;;;;;;;;;;;;;;;12.87;79.64;94264.94;10400566;28;1935;-69
2023/03/09 13:38:19;;;;;;;;;;;;;;;13.12;78.36;94263.22;10397354;28;2303;-69
2023/03/09 13:43:22;;;;;;;;;;;;;;;13.51;76.24;94278.25;10390084;28;2400;-70
2023/03/09 13:48:24;;;;;;;;;;;;;;;13.72;73.61;94274.75;10399401;28;2299;-70
2023/03/09 13:53:27;;;;;;;;;;;;;;;13.65;73.78;94269.09;10393277;28;2320;-69
2023/03/09 13:58:30;;;;;;;;;;;;;;;13.46;70.17;94280.34;10388944;28;2367;-69
2023/03/09 14:03:32;;;;;;;;;;;;;;;13.46;71.41;94293.84;10391482;28;2331;-70
2023/03/09 14:08:35;;;;;;;;;;;;;;;13.63;69.26;94287.53;10396850;28;2302;-68
2023/03/09 14:13:38;;;;;;;;;;;;;;;13.43;69.41;94302.59;10394068;28;2285;-70
2023/03/09 14:18:40;;;;;;;;;;;;;;;13.00;71.88;94298.19;10395174;28;2340;-68
2023/03/09 14:23:43;;;;;;;;;;;;;;;12.72;74.96;94305.91;10397073;28;2269;-70
2023/03/09 14:28:46;;;;;;;;;;;;;;;12.53;78.36;94295.47;10392243;28;2301;-70
2023/03/09 14:33:48;;;;;;;;;;;;;;;12.36;83.02;94284.78;10396307;28;1950;-67
2023/03/09 14:38:50;;;;;;;;;;;;;;;12.22;84.29;94287.66;10392308;28;2297;-72
2023/03/09 14:43:54;;;;;;;;;;;;;;;12.39;86.64;94300.28;10397952;28;2383;-69
2023/03/09 14:48:57;;;;;;;;;;;;;;;12.67;85.31;94273.75;10395188;28;2563;-70
2023/03/09 14:53:59;;;;;;;;;;;;;;;13.06;83.64;94275.31;10391210;28;2467;-69
2023/03/09 14:59:02;;;;;;;;;;;;;;;13.24;80.27;94259.84;10397545;28;2327;-68
2023/03/09 15:04:05;;;;;;;;;;;;;;;13.46;79.23;94256.84;10399449;28;1993;-68
2023/03/09 15:09:08;;;;;;;;;;;;;;;13.96;75.32;94249.78;10394710;28;2302;-69
2023/03/09 15:14:11;;;;;;;;;;;;;;;13.66;75.64;94265.28;10395921;28;2701;-70
2023/03/09 15:19:14;;;;;;;;;;;;;;;13.46;76.67;94267.63;10408493;28;2323;-73
2023/03/09 15:24:16;;;;;;;;;;;;;;;13.41;78.56;94258.94;10398896;28;2417;-71
2023/03/09 15:29:19;;;;;;;;;;;;;;;13.45;80.03;94249.88;10398318;28;2307;-72
2023/03/09 15:34:22;;;;;;;;;;;;;;;13.30;80.95;94247.75;10391188;28;2411;-73
2023/03/09 15:39:25;;;;;;;;;;;;;;;13.00;82.11;94252.34;10400888;28;1963;-70
2023/03/09 15:44:27;;;;;;;;;;;;;;;12.59;85.08;94256.47;10399355;28;2040;-69
2023/03/09 15:49:34;;;;;;;;;;;;;;;12.49;83.29;94243.34;10388058;28;1973;-71
2023/03/09 15:54:38;;;;;;;;;;;;;;;12.39;84.12;94249.88;10392491;28;2382;-70
2023/03/09 15:59:41;;;;;;;;;;;;;;;12.35;81.39;94248.16;10396823;28;2342;-69
2023/03/09 16:04:43;;;;;;;;;;;;;;;12.01;86.44;94249.81;10389242;28;2342;-71
2023/03/09 16:09:56;;;;;;;;;;;;;;;11.90;88.07;94245.88;10399973;28;2311;-69
2023/03/09 16:14:59;;;;;;;;;;;;;;;11.74;89.80;94258.19;10393462;28;2764;-73
2023/03/09 16:20:10;;;;;;;;;;;;;;;11.60;91.85;94261.06;10396676;28;2297;-68
2023/03/09 16:25:13;;;;;;;;;;;;;;;11.71;92.04;94266.91;10397255;28;2297;-69
2023/03/09 16:30:15;;;;;;;;;;;;;;;11.67;93.45;94261.38;10396083;28;2063;-68
2023/03/09 16:35:23;;;;;;;;;;;;;;;11.58;94.87;94268.66;10390878;28;2369;-68
2023/03/09 16:40:25;;;;;;;;;;;;;;;11.40;96.07;94273.22;10391379;28;2294;-69
2023/03/09 16:45:28;;;;;;;;;;;;;;;11.26;98.37;94270.69;10403243;28;1993;-68
2023/03/09 16:50:31;;;;;;;;;;;;;;;11.24;97.53;94278.25;10402482;28;2305;-70
2023/03/09 16:55:34;;;;;;;;;;;;;;;11.07;98.43;94272.84;10408265;28;2284;-69
2023/03/09 17:00:37;;;;;;;;;;;;;;;10.88;97.92;94278.50;10394506;28;1982;-70
2023/03/09 17:05:39;;;;;;;;;;;;;;;10.79;98.13;94278.44;10405040;28;1978;-70
2023/03/09 17:10:42;;;;;;;;;;;;;;;10.57;99.56;94278.53;10405073;28;2370;-69
2023/03/09 17:15:45;;;;;;;;;;;;;;;10.48;97.90;94272.31;10396139;28;2367;-71
2023/03/09 17:20:48;;;;;;;;;;;;;;;10.40;98.30;94276.53;10406985;28;2330;-71
2023/03/09 17:25:51;;;;;;;;;;;;;;;10.24;99.64;94273.47;10402794;28;2332;-69
2023/03/09 17:30:55;;;;;;;;;;;;;;;10.03;100.00;94262.41;10400095;28;2347;-71
2023/03/09 17:35:58;;;;;;;;;;;;;;;10.03;100.00;94257.03;10397512;28;2412;-69
2023/03/09 17:41:01;;;;;;;;;;;;;;;9.93;100.00;94253.81;10402146;28;2275;-70
2023/03/09 17:46:05;;;;;;;;;;;;;;;9.89;100.00;94263.59;10402744;28;2384;-69
2023/03/09 17:51:07;;;;;;;;;;;;;;;9.74;100.00;94260.16;10393224;28;2357;-69
2023/03/09 17:56:09;;;;;;;;;;;;;;;9.52;100.00;94262.81;10401202;28;2378;-72
2023/03/09 18:01:13;;;;;;;;;;;;;;;9.34;100.00;94266.44;10409162;28;1988;-69
2023/03/09 18:06:17;;;;;;;;;;;;;;;9.12;100.00;94269.88;10412229;28;2421;-72
2023/03/09 18:11:19;;;;;;;;;;;;;;;9.09;100.00;94260.53;10402027;28;2434;-70
2023/03/09 18:16:22;;;;;;;;;;;;;;;8.98;100.00;94259.19;10403551;28;1825;-69
2023/03/09 18:21:25;;;;;;;;;;;;;;;8.81;100.00;94254.44;10403917;28;2298;-70
2023/03/09 18:26:38;;;;;;;;;;;;;;;8.71;100.00;94253.84;10405424;28;2278;-67
2023/03/09 18:31:40;;;;;;;;;;;;;;;8.60;100.00;94246.03;10401044;28;2329;-68
2023/03/09 18:36:46;;;;;;;;;;;;;;;8.53;100.00;94236.81;10401301;28;2358;-72
2023/03/09 18:41:49;;;;;;;;;;;;;;;8.39;100.00;94226.06;10400365;28;2341;-68
2023/03/09 18:46:52;;;;;;;;;;;;;;;8.28;100.00;94214.75;10399841;28;2279;-70
2023/03/09 18:52:03;;;;;;;;;;;;;;;8.30;100.00;94217.91;10388337;28;2358;-68
2023/03/09 18:57:06;;;;;;;;;;;;;;;7.93;100.00;94218.06;10418389;28;2336;-68
2023/03/09 19:02:10;;;;;;;;;;;;;;;7.65;100.00;94215.31;10405027;28;2448;-68
2023/03/09 19:07:14;;;;;;;;;;;;;;;7.56;100.00;94212.50;10397553;28;2332;-71
2023/03/09 19:12:17;;;;;;;;;;;;;;;7.43;100.00;94220.47;10399684;28;1702;-68
2023/03/09 19:17:20;;;;;;;;;;;;;;;7.27;100.00;94225.28;10395747;28;2316;-67
2023/03/09 19:22:22;;;;;;;;;;;;;;;7.19;100.00;94225.91;10402686;28;1910;-67
2023/03/09 19:27:26;;;;;;;;;;;;;;;7.08;100.00;94225.28;10403482;28;2487;-67
2023/03/09 19:32:29;;;;;;;;;;;;;;;7.16;100.00;94223.84;10395580;28;2294;-66
2023/03/09 19:37:32;;;;;;;;;;;;;;;7.09;100.00;94218.84;10402230;28;1751;-67
2023/03/09 19:42:46;;;;;;;;;;;;;;;7.02;100.00;94211.19;10395621;28;2580;-67
2023/03/09 19:47:50;;;;;;;;;;;;;;;6.95;100.00;94205.44;10398430;28;2308;-67
2023/03/09 19:52:53;;;;;;;;;;;;;;;6.88;100.00;94194.31;10410717;28;1754;-69
2023/03/09 19:57:59;;;;;;;;;;;;;;;6.79;100.00;94204.03;10399612;28;1755;-68
2023/03/09 20:03:03;;;;;;;;;;;;;;;6.72;100.00;94191.03;10406436;28;1922;-68
2023/03/09 20:08:06;;;;;;;;;;;;;;;6.62;100.00;94180.50;10399450;28;2330;-68
2023/03/09 20:13:10;;;;;;;;;;;;;;;6.56;100.00;94183.53;10400315;28;2523;-68
2023/03/09 20:18:12;;;;;;;;;;;;;;;6.53;100.00;94181.41;10400282;28;2411;-68
2023/03/09 20:23:15;;;;;;;;;;;;;;;6.45;100.00;94180.19;10392499;28;2701;-70
2023/03/09 20:28:17;;;;;;;;;;;;;;;6.40;100.00;94172.25;10400201;28;2380;-70
2023/03/09 20:33:20;;;;;;;;;;;;;;;6.59;100.00;94170.38;10405993;28;2502;-69
2023/03/09 20:38:22;;;;;;;;;;;;;;;6.73;100.00;94165.13;10395247;28;2327;-69
2023/03/09 20:43:25;;;;;;;;;;;;;;;6.59;100.00;94165.06;10408661;28;2417;-67
2023/03/09 20:48:28;;;;;;;;;;;;;;;6.38;100.00;94153.06;10396539;28;2300;-69
2023/03/09 20:53:34;;;;;;;;;;;;;;;6.36;100.00;94144.53;10389340;28;2353;-71
2023/03/09 20:58:37;;;;;;;;;;;;;;;6.25;100.00;94149.22;10402262;28;2360;-68
2023/03/09 21:03:39;;;;;;;;;;;;;;;6.02;100.00;94147.34;10412802;28;2368;-69
2023/03/09 21:08:43;;;;;;;;;;;;;;;6.08;100.00;94141.66;10407531;28;2353;-68
2023/03/09 21:13:46;;;;;;;;;;;;;;;6.12;100.00;94141.91;10403447;28;2440;-70
2023/03/09 21:18:49;;;;;;;;;;;;;;;6.04;100.00;94131.84;10400102;28;1778;-68
2023/03/09 21:23:52;;;;;;;;;;;;;;;6.01;100.00;94133.22;10384343;28;2895;-71
2023/03/09 21:28:55;;;;;;;;;;;;;;;5.95;100.00;94129.03;10396868;28;2425;-69
2023/03/09 21:33:57;;;;;;;;;;;;;;;6.01;100.00;94124.44;10393178;28;2405;-67
2023/03/09 21:39:00;;;;;;;;;;;;;;;6.00;100.00;94110.31;10400711;28;2368;-70
2023/03/09 21:44:03;;;;;;;;;;;;;;;6.00;100.00;94109.50;10406412;28;2421;-67
2023/03/09 21:49:05;;;;;;;;;;;;;;;6.07;100.00;94096.63;10430437;28;2288;-68
2023/03/09 21:54:07;;;;;;;;;;;;;;;6.07;100.00;94097.41;10400559;28;2270;-67
2023/03/09 21:59:10;;;;;;;;;;;;;;;5.95;100.00;94097.81;10397333;28;2462;-68
2023/03/09 22:04:13;;;;;;;;;;;;;;;5.96;100.00;94083.38;10399648;28;2644;-67
2023/03/09 22:09:15;;;;;;;;;;;;;;;5.93;100.00;94078.63;10397587;28;2313;-68
2023/03/09 22:14:28;;;;;;;;;;;;;;;5.87;100.00;94085.09;10391486;28;2286;-68
2023/03/09 22:19:34;;;;;;;;;;;;;;;5.74;100.00;94079.66;10402218;28;2293;-67
2023/03/09 22:24:36;;;;;;;;;;;;;;;5.69;100.00;94075.16;10397394;28;2357;-68
2023/03/09 22:29:39;;;;;;;;;;;;;;;5.65;100.00;94066.91;10405915;28;2307;-65
2023/03/09 22:34:42;;;;;;;;;;;;;;;5.60;100.00;94059.00;10403701;28;2304;-66
2023/03/09 22:39:44;;;;;;;;;;;;;;;5.67;100.00;94048.78;10405095;28;2401;-69
2023/03/09 22:44:48;;;;;;;;;;;;;;;5.78;100.00;94049.44;10402444;28;1985;-70
2023/03/09 22:49:51;;;;;;;;;;;;;;;5.90;100.00;94036.50;10404533;28;2284;-72
2023/03/09 22:54:54;;;;;;;;;;;;;;;5.96;100.00;94022.03;10435475;28;1954;-68
2023/03/09 22:59:56;;;;;;;;;;;;;;;6.02;100.00;94032.66;10412534;28;2284;-69
2023/03/09 23:04:59;;;;;;;;;;;;;;;6.17;100.00;94019.91;10410588;28;2364;-68
2023/03/09 23:10:02;;;;;;;;;;;;;;;6.34;100.00;94010.59;10413224;28;2328;-70
2023/03/09 23:15:05;;;;;;;;;;;;;;;6.40;100.00;94006.78;10420539;28;2352;-67
2023/03/09 23:20:08;;;;;;;;;;;;;;;6.43;100.00;93995.53;10401001;28;2303;-69
2023/03/09 23:25:18;;;;;;;;;;;;;;;6.54;100.00;93986.25;10410587;28;2351;-68
2023/03/09 23:30:21;;;;;;;;;;;;;;;6.60;100.00;93985.09;10410301;28;1962;-69
2023/03/09 23:35:24;;;;;;;;;;;;;;;6.66;100.00;93977.78;10419254;28;2384;-69
2023/03/09 23:40:27;;;;;;;;;;;;;;;6.74;100.00;93963.75;10404111;28;2419;-67
2023/03/09 23:45:30;;;;;;;;;;;;;;;6.72;100.00;93963.28;10392724;28;2355;-68
2023/03/09 23:50:33;;;;;;;;;;;;;;;6.60;100.00;93962.94;10407608;28;2415;-68
2023/03/09 23:55:37;;;;;;;;;;;;;;;6.59;100.00;93953.34;10390551;28;2401;-69
